sensor_id;sensor_type;location;lat;lon;timestamp;temperature;humidity
23267;DHT22;11802;53.160;8.214;2023-02-28T00:00:34;4.50;1.00
23267;DHT22;11802;53.160;8.214;2023-02-28T00:03:01;4.50;1.00
23267;DHT22;11802;53.160;8.214;2023-02-28T00:05:27;4.50;1.00
23267;DHT22;11802;53.160;8.214;2023-02-28T00:07:53;4.50;1.00
23267;DHT22;11802;53.160;8.214;2023-02-28T00:10:23;4.50;1.00
23267;DHT22;11802;53.160;8.214;2023-02-28T00:12:49;4.50;1.00
23267;DHT22;11802;53.160;8.214;2023-02-28T00:15:16;4.50;1.00
23267;DHT22;11802;53.160;8.214;2023-02-28T00:17:41;4.40;1.00
23267;DHT22;11802;53.160;8.214;2023-02-28T00:20:08;4.40;1.00
23267;DHT22;11802;53.160;8.214;2023-02-28T00:22:36;4.40;1.00
23267;DHT22;11802;53.160;8.214;2023-02-28T00:25:03;4.40;1.00
23267;DHT22;11802;53.160;8.214;2023-02-28T00:27:29;4.40;1.00
23267;DHT22;11802;53.160;8.214;2023-02-28T00:29:55;4.40;1.00
23267;DHT22;11802;53.160;8.214;2023-02-28T00:32:20;4.40;1.00
23267;DHT22;11802;53.160;8.214;2023-02-28T00:34:46;4.40;1.00
23267;DHT22;11802;53.160;8.214;2023-02-28T00:37:12;4.40;1.00
23267;DHT22;11802;53.160;8.214;2023-02-28T00:39:38;4.40;1.00
23267;DHT22;11802;53.160;8.214;2023-02-28T00:42:05;4.40;1.00
23267;DHT22;11802;53.160;8.214;2023-02-28T00:44:31;4.40;1.00
23267;DHT22;11802;53.160;8.214;2023-02-28T00:46:57;4.40;1.00
23267;DHT22;11802;53.160;8.214;2023-02-28T00:49:23;4.30;1.00
23267;DHT22;11802;53.160;8.214;2023-02-28T00:51:48;4.30;1.00
23267;DHT22;11802;53.160;8.214;2023-02-28T00:54:14;4.30;1.00
23267;DHT22;11802;53.160;8.214;2023-02-28T00:56:40;4.30;1.00
23267;DHT22;11802;53.160;8.214;2023-02-28T00:59:05;4.30;1.00
23267;DHT22;11802;53.160;8.214;2023-02-28T01:01:31;4.30;1.00
23267;DHT22;11802;53.160;8.214;2023-02-28T01:03:57;4.30;1.00
23267;DHT22;11802;53.160;8.214;2023-02-28T01:06:23;4.30;1.00
23267;DHT22;11802;53.160;8.214;2023-02-28T01:08:48;4.30;1.00
23267;DHT22;11802;53.160;8.214;2023-02-28T01:11:16;4.30;1.00
23267;DHT22;11802;53.160;8.214;2023-02-28T01:13:43;4.40;1.00
23267;DHT22;11802;53.160;8.214;2023-02-28T01:16:08;4.40;1.00
23267;DHT22;11802;53.160;8.214;2023-02-28T01:18:35;4.30;1.00
23267;DHT22;11802;53.160;8.214;2023-02-28T01:21:12;4.40;1.00
23267;DHT22;11802;53.160;8.214;2023-02-28T01:23:39;4.40;1.00
23267;DHT22;11802;53.160;8.214;2023-02-28T01:26:11;4.40;1.00
23267;DHT22;11802;53.160;8.214;2023-02-28T01:28:37;4.30;1.00
23267;DHT22;11802;53.160;8.214;2023-02-28T01:31:04;4.30;1.00
23267;DHT22;11802;53.160;8.214;2023-02-28T01:33:30;4.30;1.00
23267;DHT22;11802;53.160;8.214;2023-02-28T01:36:13;4.30;1.00
23267;DHT22;11802;53.160;8.214;2023-02-28T01:38:39;4.30;1.00
23267;DHT22;11802;53.160;8.214;2023-02-28T01:41:05;4.30;1.00
23267;DHT22;11802;53.160;8.214;2023-02-28T01:46:10;4.20;1.00
23267;DHT22;11802;53.160;8.214;2023-02-28T01:48:40;4.30;1.00
23267;DHT22;11802;53.160;8.214;2023-02-28T01:51:11;4.30;1.00
23267;DHT22;11802;53.160;8.214;2023-02-28T01:53:45;4.30;1.00
23267;DHT22;11802;53.160;8.214;2023-02-28T01:56:13;4.30;1.00
23267;DHT22;11802;53.160;8.214;2023-02-28T01:58:49;4.30;1.00
23267;DHT22;11802;53.160;8.214;2023-02-28T02:01:16;4.30;1.00
23267;DHT22;11802;53.160;8.214;2023-02-28T02:03:57;4.30;1.00
23267;DHT22;11802;53.160;8.214;2023-02-28T02:06:40;4.20;1.00
23267;DHT22;11802;53.160;8.214;2023-02-28T02:09:07;4.20;1.00
23267;DHT22;11802;53.160;8.214;2023-02-28T02:11:33;4.20;1.00
23267;DHT22;11802;53.160;8.214;2023-02-28T02:19:46;4.30;1.00
23267;DHT22;11802;53.160;8.214;2023-02-28T02:23:23;4.30;1.00
23267;DHT22;11802;53.160;8.214;2023-02-28T02:31:38;4.20;1.10
23267;DHT22;11802;53.160;8.214;2023-02-28T02:37:15;4.20;1.00
23267;DHT22;11802;53.160;8.214;2023-02-28T02:42:40;4.20;1.00
23267;DHT22;11802;53.160;8.214;2023-02-28T02:45:32;4.20;1.00
23267;DHT22;11802;53.160;8.214;2023-02-28T02:48:01;4.10;1.00
23267;DHT22;11802;53.160;8.214;2023-02-28T02:50:33;4.10;2.40
23267;DHT22;11802;53.160;8.214;2023-02-28T02:53:03;4.10;16.30
23267;DHT22;11802;53.160;8.214;2023-02-28T02:55:33;4.00;21.30
23267;DHT22;11802;53.160;8.214;2023-02-28T02:58:03;4.00;25.80
23267;DHT22;11802;53.160;8.214;2023-02-28T03:00:34;4.10;23.30
23267;DHT22;11802;53.160;8.214;2023-02-28T03:03:01;4.10;17.00
23267;DHT22;11802;53.160;8.214;2023-02-28T03:05:48;4.10;14.80
23267;DHT22;11802;53.160;8.214;2023-02-28T03:08:14;4.00;1.50
23267;DHT22;11802;53.160;8.214;2023-02-28T03:10:41;4.10;5.30
23267;DHT22;11802;53.160;8.214;2023-02-28T03:13:20;4.00;6.50
23267;DHT22;11802;53.160;8.214;2023-02-28T03:19:03;4.10;10.40
23267;DHT22;11802;53.160;8.214;2023-02-28T03:24:41;4.10;1.00
23267;DHT22;11802;53.160;8.214;2023-02-28T03:27:21;4.00;1.00
23267;DHT22;11802;53.160;8.214;2023-02-28T03:30:02;4.00;1.70
23267;DHT22;11802;53.160;8.214;2023-02-28T03:33:08;3.90;4.60
23267;DHT22;11802;53.160;8.214;2023-02-28T03:35:45;3.90;11.20
23267;DHT22;11802;53.160;8.214;2023-02-28T03:41:06;3.90;36.00
23267;DHT22;11802;53.160;8.214;2023-02-28T03:43:38;4.00;21.70
23267;DHT22;11802;53.160;8.214;2023-02-28T03:46:08;3.90;18.80
23267;DHT22;11802;53.160;8.214;2023-02-28T03:48:43;3.90;17.60
23267;DHT22;11802;53.160;8.214;2023-02-28T03:51:11;3.90;24.40
23267;DHT22;11802;53.160;8.214;2023-02-28T03:53:44;3.90;16.50
23267;DHT22;11802;53.160;8.214;2023-02-28T03:56:22;3.90;16.30
23267;DHT22;11802;53.160;8.214;2023-02-28T03:59:02;3.80;23.10
23267;DHT22;11802;53.160;8.214;2023-02-28T04:01:48;3.80;33.00
23267;DHT22;11802;53.160;8.214;2023-02-28T04:04:15;3.80;29.90
23267;DHT22;11802;53.160;8.214;2023-02-28T04:06:42;3.90;17.90
23267;DHT22;11802;53.160;8.214;2023-02-28T04:09:10;3.80;13.10
23267;DHT22;11802;53.160;8.214;2023-02-28T04:11:38;3.80;22.00
23267;DHT22;11802;53.160;8.214;2023-02-28T04:14:06;3.80;21.40
23267;DHT22;11802;53.160;8.214;2023-02-28T04:16:33;3.80;17.10
23267;DHT22;11802;53.160;8.214;2023-02-28T04:19:00;3.80;9.40
23267;DHT22;11802;53.160;8.214;2023-02-28T04:21:31;3.80;3.00
23267;DHT22;11802;53.160;8.214;2023-02-28T04:23:56;3.80;7.50
23267;DHT22;11802;53.160;8.214;2023-02-28T04:26:33;3.80;6.40
23267;DHT22;11802;53.160;8.214;2023-02-28T04:29:00;3.80;16.80
23267;DHT22;11802;53.160;8.214;2023-02-28T04:31:26;3.80;23.90
23267;DHT22;11802;53.160;8.214;2023-02-28T04:33:51;3.80;23.60
23267;DHT22;11802;53.160;8.214;2023-02-28T04:36:18;3.80;17.80
23267;DHT22;11802;53.160;8.214;2023-02-28T04:38:44;3.80;24.80
23267;DHT22;11802;53.160;8.214;2023-02-28T04:41:11;3.80;25.10
23267;DHT22;11802;53.160;8.214;2023-02-28T04:43:36;3.90;16.70
23267;DHT22;11802;53.160;8.214;2023-02-28T04:46:03;3.80;1.00
23267;DHT22;11802;53.160;8.214;2023-02-28T04:48:31;3.80;1.00
23267;DHT22;11802;53.160;8.214;2023-02-28T04:51:05;3.70;1.00
23267;DHT22;11802;53.160;8.214;2023-02-28T04:53:31;3.80;1.00
23267;DHT22;11802;53.160;8.214;2023-02-28T04:55:57;3.70;1.00
23267;DHT22;11802;53.160;8.214;2023-02-28T04:58:23;3.70;1.00
23267;DHT22;11802;53.160;8.214;2023-02-28T05:00:50;3.70;1.00
23267;DHT22;11802;53.160;8.214;2023-02-28T05:03:16;3.70;1.00
23267;DHT22;11802;53.160;8.214;2023-02-28T05:05:41;3.70;1.00
23267;DHT22;11802;53.160;8.214;2023-02-28T05:08:07;3.70;1.00
23267;DHT22;11802;53.160;8.214;2023-02-28T05:10:32;3.70;1.00
23267;DHT22;11802;53.160;8.214;2023-02-28T05:12:58;3.70;1.00
23267;DHT22;11802;53.160;8.214;2023-02-28T05:15:24;3.60;1.00
23267;DHT22;11802;53.160;8.214;2023-02-28T05:17:50;3.60;1.00
23267;DHT22;11802;53.160;8.214;2023-02-28T05:20:15;3.60;1.00
23267;DHT22;11802;53.160;8.214;2023-02-28T05:22:42;3.60;1.00
23267;DHT22;11802;53.160;8.214;2023-02-28T05:25:12;3.50;1.00
23267;DHT22;11802;53.160;8.214;2023-02-28T05:27:38;3.50;1.00
23267;DHT22;11802;53.160;8.214;2023-02-28T05:30:04;3.50;1.00
23267;DHT22;11802;53.160;8.214;2023-02-28T05:32:31;3.40;1.00
23267;DHT22;11802;53.160;8.214;2023-02-28T05:34:56;3.40;1.00
23267;DHT22;11802;53.160;8.214;2023-02-28T05:37:22;3.40;1.00
23267;DHT22;11802;53.160;8.214;2023-02-28T05:39:47;3.20;1.00
23267;DHT22;11802;53.160;8.214;2023-02-28T05:42:13;3.20;1.00
23267;DHT22;11802;53.160;8.214;2023-02-28T05:44:38;3.10;1.00
23267;DHT22;11802;53.160;8.214;2023-02-28T05:47:04;3.00;1.00
23267;DHT22;11802;53.160;8.214;2023-02-28T05:49:29;2.90;1.00
23267;DHT22;11802;53.160;8.214;2023-02-28T05:51:55;2.80;1.00
23267;DHT22;11802;53.160;8.214;2023-02-28T05:54:20;2.80;3.60
23267;DHT22;11802;53.160;8.214;2023-02-28T05:56:46;2.70;18.70
23267;DHT22;11802;53.160;8.214;2023-02-28T05:59:12;2.70;30.30
23267;DHT22;11802;53.160;8.214;2023-02-28T06:01:40;2.70;31.70
23267;DHT22;11802;53.160;8.214;2023-02-28T06:04:09;2.70;36.90
23267;DHT22;11802;53.160;8.214;2023-02-28T06:06:35;2.70;34.00
23267;DHT22;11802;53.160;8.214;2023-02-28T06:09:01;2.70;38.30
23267;DHT22;11802;53.160;8.214;2023-02-28T06:11:27;2.80;27.10
23267;DHT22;11802;53.160;8.214;2023-02-28T06:13:57;2.80;22.20
23267;DHT22;11802;53.160;8.214;2023-02-28T06:16:25;2.80;20.40
23267;DHT22;11802;53.160;8.214;2023-02-28T06:18:51;2.90;32.20
23267;DHT22;11802;53.160;8.214;2023-02-28T06:21:18;2.90;19.80
23267;DHT22;11802;53.160;8.214;2023-02-28T06:23:43;3.00;14.00
23267;DHT22;11802;53.160;8.214;2023-02-28T06:26:09;3.00;27.50
23267;DHT22;11802;53.160;8.214;2023-02-28T06:28:35;3.10;24.40
23267;DHT22;11802;53.160;8.214;2023-02-28T06:31:07;3.20;16.20
23267;DHT22;11802;53.160;8.214;2023-02-28T06:33:33;3.20;3.30
23267;DHT22;11802;53.160;8.214;2023-02-28T06:35:59;3.20;3.50
23267;DHT22;11802;53.160;8.214;2023-02-28T06:38:24;3.20;1.00
23267;DHT22;11802;53.160;8.214;2023-02-28T06:40:57;3.30;1.00
23267;DHT22;11802;53.160;8.214;2023-02-28T06:43:24;3.30;1.00
23267;DHT22;11802;53.160;8.214;2023-02-28T06:45:49;3.30;1.00
23267;DHT22;11802;53.160;8.214;2023-02-28T06:48:15;3.40;1.00
23267;DHT22;11802;53.160;8.214;2023-02-28T06:50:41;3.40;1.00
23267;DHT22;11802;53.160;8.214;2023-02-28T06:53:07;3.40;1.00
23267;DHT22;11802;53.160;8.214;2023-02-28T06:55:33;3.50;1.00
23267;DHT22;11802;53.160;8.214;2023-02-28T06:57:58;3.50;1.00
23267;DHT22;11802;53.160;8.214;2023-02-28T07:00:24;3.60;1.00
23267;DHT22;11802;53.160;8.214;2023-02-28T07:02:50;3.60;1.00
23267;DHT22;11802;53.160;8.214;2023-02-28T07:05:16;3.70;1.00
23267;DHT22;11802;53.160;8.214;2023-02-28T07:07:42;4.30;1.00
23267;DHT22;11802;53.160;8.214;2023-02-28T07:10:13;3.80;1.00
23267;DHT22;11802;53.160;8.214;2023-02-28T07:12:42;3.80;1.00
23267;DHT22;11802;53.160;8.214;2023-02-28T07:15:09;3.80;1.00
23267;DHT22;11802;53.160;8.214;2023-02-28T07:17:34;3.80;1.00
23267;DHT22;11802;53.160;8.214;2023-02-28T07:20:00;3.80;1.00
23267;DHT22;11802;53.160;8.214;2023-02-28T07:22:25;3.90;1.00
23267;DHT22;11802;53.160;8.214;2023-02-28T07:24:51;3.90;99.90
23267;DHT22;11802;53.160;8.214;2023-02-28T07:27:17;3.90;99.90
23267;DHT22;11802;53.160;8.214;2023-02-28T07:29:49;4.10;99.90
23267;DHT22;11802;53.160;8.214;2023-02-28T07:32:15;4.30;99.90
23267;DHT22;11802;53.160;8.214;2023-02-28T07:34:40;4.60;1.00
23267;DHT22;11802;53.160;8.214;2023-02-28T07:37:06;5.30;1.00
23267;DHT22;11802;53.160;8.214;2023-02-28T07:39:31;6.30;1.00
23267;DHT22;11802;53.160;8.214;2023-02-28T07:41:57;7.70;99.90
23267;DHT22;11802;53.160;8.214;2023-02-28T07:44:23;8.90;1.00
23267;DHT22;11802;53.160;8.214;2023-02-28T07:46:48;10.10;1.00
23267;DHT22;11802;53.160;8.214;2023-02-28T07:49:14;11.10;99.90
23267;DHT22;11802;53.160;8.214;2023-02-28T07:51:40;11.90;99.90
23267;DHT22;11802;53.160;8.214;2023-02-28T07:54:05;12.30;1.00
23267;DHT22;11802;53.160;8.214;2023-02-28T07:56:31;13.10;1.00
23267;DHT22;11802;53.160;8.214;2023-02-28T07:58:56;13.80;1.00
23267;DHT22;11802;53.160;8.214;2023-02-28T08:01:22;14.10;1.00
23267;DHT22;11802;53.160;8.214;2023-02-28T08:03:47;14.50;1.00
23267;DHT22;11802;53.160;8.214;2023-02-28T08:06:18;14.50;1.00
23267;DHT22;11802;53.160;8.214;2023-02-28T08:08:44;14.90;1.00
23267;DHT22;11802;53.160;8.214;2023-02-28T08:11:10;15.20;1.00
23267;DHT22;11802;53.160;8.214;2023-02-28T08:13:35;15.50;1.00
23267;DHT22;11802;53.160;8.214;2023-02-28T08:16:02;15.80;1.00
23267;DHT22;11802;53.160;8.214;2023-02-28T08:18:28;16.20;1.00
23267;DHT22;11802;53.160;8.214;2023-02-28T08:20:53;16.50;1.00
23267;DHT22;11802;53.160;8.214;2023-02-28T08:23:19;16.90;1.00
23267;DHT22;11802;53.160;8.214;2023-02-28T08:25:45;17.00;1.00
23267;DHT22;11802;53.160;8.214;2023-02-28T08:28:10;17.00;1.00
23267;DHT22;11802;53.160;8.214;2023-02-28T08:30:36;17.30;1.00
23267;DHT22;11802;53.160;8.214;2023-02-28T08:33:02;17.30;1.00
23267;DHT22;11802;53.160;8.214;2023-02-28T08:35:27;16.70;1.00
23267;DHT22;11802;53.160;8.214;2023-02-28T08:37:53;16.80;1.00
23267;DHT22;11802;53.160;8.214;2023-02-28T08:40:22;17.00;1.00
23267;DHT22;11802;53.160;8.214;2023-02-28T08:42:51;17.20;1.00
23267;DHT22;11802;53.160;8.214;2023-02-28T08:45:17;17.70;1.00
23267;DHT22;11802;53.160;8.214;2023-02-28T08:47:43;18.10;1.00
23267;DHT22;11802;53.160;8.214;2023-02-28T08:50:10;18.60;1.00
23267;DHT22;11802;53.160;8.214;2023-02-28T08:52:36;19.10;1.00
23267;DHT22;11802;53.160;8.214;2023-02-28T08:55:01;18.50;1.00
23267;DHT22;11802;53.160;8.214;2023-02-28T08:57:30;18.10;1.00
23267;DHT22;11802;53.160;8.214;2023-02-28T09:00:14;18.50;1.00
23267;DHT22;11802;53.160;8.214;2023-02-28T09:02:40;18.50;1.00
23267;DHT22;11802;53.160;8.214;2023-02-28T09:05:08;18.40;1.00
23267;DHT22;11802;53.160;8.214;2023-02-28T09:07:33;18.30;1.00
23267;DHT22;11802;53.160;8.214;2023-02-28T09:09:59;18.20;1.00
23267;DHT22;11802;53.160;8.214;2023-02-28T09:12:26;18.70;1.00
23267;DHT22;11802;53.160;8.214;2023-02-28T09:14:52;18.30;1.00
23267;DHT22;11802;53.160;8.214;2023-02-28T09:17:18;18.20;1.00
23267;DHT22;11802;53.160;8.214;2023-02-28T09:19:44;18.00;1.00
23267;DHT22;11802;53.160;8.214;2023-02-28T09:22:11;18.10;1.00
23267;DHT22;11802;53.160;8.214;2023-02-28T09:24:37;18.10;1.00
23267;DHT22;11802;53.160;8.214;2023-02-28T09:27:03;17.80;1.00
23267;DHT22;11802;53.160;8.214;2023-02-28T09:29:30;17.90;1.00
23267;DHT22;11802;53.160;8.214;2023-02-28T09:31:55;18.20;1.00
23267;DHT22;11802;53.160;8.214;2023-02-28T09:34:24;17.40;1.00
23267;DHT22;11802;53.160;8.214;2023-02-28T09:36:49;17.40;1.00
23267;DHT22;11802;53.160;8.214;2023-02-28T09:39:20;17.60;1.00
23267;DHT22;11802;53.160;8.214;2023-02-28T09:41:48;17.80;1.00
23267;DHT22;11802;53.160;8.214;2023-02-28T09:44:35;17.60;1.00
23267;DHT22;11802;53.160;8.214;2023-02-28T09:49:41;17.80;1.00
23267;DHT22;11802;53.160;8.214;2023-02-28T09:52:14;17.90;1.00
23267;DHT22;11802;53.160;8.214;2023-02-28T09:54:42;17.60;1.00
23267;DHT22;11802;53.160;8.214;2023-02-28T10:02:39;16.90;1.00
23267;DHT22;11802;53.160;8.214;2023-02-28T10:05:13;17.00;1.00
23267;DHT22;11802;53.160;8.214;2023-02-28T10:08:12;17.10;1.00
23267;DHT22;11802;53.160;8.214;2023-02-28T10:10:41;16.60;1.00
23267;DHT22;11802;53.160;8.214;2023-02-28T10:15:47;15.60;1.00
23267;DHT22;11802;53.160;8.214;2023-02-28T10:18:20;14.90;1.00
23267;DHT22;11802;53.160;8.214;2023-02-28T10:20:47;14.80;1.00
23267;DHT22;11802;53.160;8.214;2023-02-28T10:23:28;14.90;1.00
23267;DHT22;11802;53.160;8.214;2023-02-28T10:26:20;15.00;1.00
23267;DHT22;11802;53.160;8.214;2023-02-28T10:28:46;14.90;1.00
23267;DHT22;11802;53.160;8.214;2023-02-28T10:31:17;15.10;1.00
23267;DHT22;11802;53.160;8.214;2023-02-28T10:33:43;15.50;1.00
23267;DHT22;11802;53.160;8.214;2023-02-28T10:36:16;15.10;1.00
23267;DHT22;11802;53.160;8.214;2023-02-28T10:38:44;15.40;1.00
23267;DHT22;11802;53.160;8.214;2023-02-28T10:41:31;15.20;1.00
23267;DHT22;11802;53.160;8.214;2023-02-28T10:44:22;14.80;1.00
23267;DHT22;11802;53.160;8.214;2023-02-28T10:46:49;14.80;1.00
23267;DHT22;11802;53.160;8.214;2023-02-28T10:49:47;14.40;1.00
23267;DHT22;11802;53.160;8.214;2023-02-28T10:55:43;13.60;1.00
23267;DHT22;11802;53.160;8.214;2023-02-28T10:58:26;13.30;1.00
23267;DHT22;11802;53.160;8.214;2023-02-28T11:00:52;12.10;1.00
23267;DHT22;11802;53.160;8.214;2023-02-28T11:03:30;11.60;1.00
23267;DHT22;11802;53.160;8.214;2023-02-28T11:05:56;11.20;1.00
23267;DHT22;11802;53.160;8.214;2023-02-28T11:08:22;11.00;1.00
23267;DHT22;11802;53.160;8.214;2023-02-28T11:10:57;11.20;1.00
23267;DHT22;11802;53.160;8.214;2023-02-28T11:13:33;11.50;1.00
23267;DHT22;11802;53.160;8.214;2023-02-28T11:16:02;11.70;1.00
23267;DHT22;11802;53.160;8.214;2023-02-28T11:18:33;12.00;1.00
23267;DHT22;11802;53.160;8.214;2023-02-28T11:21:02;12.20;1.00
23267;DHT22;11802;53.160;8.214;2023-02-28T11:23:31;12.30;1.00
23267;DHT22;11802;53.160;8.214;2023-02-28T11:26:02;11.60;1.00
23267;DHT22;11802;53.160;8.214;2023-02-28T11:28:33;11.60;1.00
23267;DHT22;11802;53.160;8.214;2023-02-28T11:33:48;11.40;1.00
23267;DHT22;11802;53.160;8.214;2023-02-28T11:36:24;11.70;1.00
23267;DHT22;11802;53.160;8.214;2023-02-28T11:38:52;11.00;1.00
23267;DHT22;11802;53.160;8.214;2023-02-28T11:41:28;11.20;1.00
23267;DHT22;11802;53.160;8.214;2023-02-28T11:47:03;11.20;1.00
23267;DHT22;11802;53.160;8.214;2023-02-28T11:49:47;11.00;1.00
23267;DHT22;11802;53.160;8.214;2023-02-28T11:52:36;11.10;1.00
23267;DHT22;11802;53.160;8.214;2023-02-28T11:58:02;10.90;1.00
23267;DHT22;11802;53.160;8.214;2023-02-28T12:01:01;11.00;1.00
23267;DHT22;11802;53.160;8.214;2023-02-28T12:06:19;10.50;1.00
23267;DHT22;11802;53.160;8.214;2023-02-28T12:11:48;9.30;1.00
23267;DHT22;11802;53.160;8.214;2023-02-28T12:28:21;9.40;1.00
23267;DHT22;11802;53.160;8.214;2023-02-28T12:30:58;9.20;1.00
23267;DHT22;11802;53.160;8.214;2023-02-28T12:33:31;9.20;1.00
23267;DHT22;11802;53.160;8.214;2023-02-28T12:36:03;9.10;1.00
23267;DHT22;11802;53.160;8.214;2023-02-28T12:38:40;9.00;1.00
23267;DHT22;11802;53.160;8.214;2023-02-28T12:41:16;9.00;1.00
23267;DHT22;11802;53.160;8.214;2023-02-28T12:43:51;8.80;1.00
23267;DHT22;11802;53.160;8.214;2023-02-28T12:46:25;8.60;1.00
23267;DHT22;11802;53.160;8.214;2023-02-28T12:49:00;8.50;1.00
23267;DHT22;11802;53.160;8.214;2023-02-28T12:51:28;8.50;1.00
23267;DHT22;11802;53.160;8.214;2023-02-28T12:59:45;8.30;1.00
23267;DHT22;11802;53.160;8.214;2023-02-28T13:02:21;8.30;1.00
23267;DHT22;11802;53.160;8.214;2023-02-28T13:10:24;8.60;1.00
23267;DHT22;11802;53.160;8.214;2023-02-28T13:12:52;8.50;1.00
23267;DHT22;11802;53.160;8.214;2023-02-28T13:15:25;8.60;1.00
23267;DHT22;11802;53.160;8.214;2023-02-28T13:17:56;8.50;1.00
23267;DHT22;11802;53.160;8.214;2023-02-28T13:20:24;8.70;1.00
23267;DHT22;11802;53.160;8.214;2023-02-28T13:22:53;8.70;1.00
23267;DHT22;11802;53.160;8.214;2023-02-28T13:27:54;8.90;1.00
23267;DHT22;11802;53.160;8.214;2023-02-28T13:47:44;8.40;1.00
23267;DHT22;11802;53.160;8.214;2023-02-28T13:53:03;8.40;1.00
23267;DHT22;11802;53.160;8.214;2023-02-28T13:55:43;8.50;1.00
23267;DHT22;11802;53.160;8.214;2023-02-28T14:06:26;8.00;1.00
23267;DHT22;11802;53.160;8.214;2023-02-28T14:11:34;7.70;1.00
23267;DHT22;11802;53.160;8.214;2023-02-28T14:14:01;7.70;1.00
23267;DHT22;11802;53.160;8.214;2023-02-28T14:16:39;7.70;1.00
23267;DHT22;11802;53.160;8.214;2023-02-28T14:19:24;7.80;1.00
23267;DHT22;11802;53.160;8.214;2023-02-28T14:28:17;7.60;1.00
23267;DHT22;11802;53.160;8.214;2023-02-28T14:30:57;7.60;1.00
23267;DHT22;11802;53.160;8.214;2023-02-28T14:36:12;7.60;1.00
23267;DHT22;11802;53.160;8.214;2023-02-28T14:39:06;7.60;1.00
23267;DHT22;11802;53.160;8.214;2023-02-28T14:41:35;7.50;1.00
23267;DHT22;11802;53.160;8.214;2023-02-28T14:46:43;7.30;1.00
23267;DHT22;11802;53.160;8.214;2023-02-28T14:49:28;7.30;1.00
23267;DHT22;11802;53.160;8.214;2023-02-28T14:52:22;7.30;1.00
23267;DHT22;11802;53.160;8.214;2023-02-28T14:54:54;7.30;1.00
23267;DHT22;11802;53.160;8.214;2023-02-28T14:57:22;7.30;1.00
23267;DHT22;11802;53.160;8.214;2023-02-28T15:00:16;7.30;1.00
23267;DHT22;11802;53.160;8.214;2023-02-28T15:02:42;7.30;1.00
23267;DHT22;11802;53.160;8.214;2023-02-28T15:07:47;7.30;1.00
23267;DHT22;11802;53.160;8.214;2023-02-28T15:10:22;7.20;1.00
23267;DHT22;11802;53.160;8.214;2023-02-28T15:13:04;7.20;1.00
23267;DHT22;11802;53.160;8.214;2023-02-28T15:15:54;7.20;1.00
23267;DHT22;11802;53.160;8.214;2023-02-28T15:20:53;7.20;1.00
23267;DHT22;11802;53.160;8.214;2023-02-28T15:23:20;7.20;1.00
23267;DHT22;11802;53.160;8.214;2023-02-28T15:25:47;7.10;1.00
23267;DHT22;11802;53.160;8.214;2023-02-28T15:28:18;7.10;1.00
23267;DHT22;11802;53.160;8.214;2023-02-28T15:31:16;7.10;1.00
23267;DHT22;11802;53.160;8.214;2023-02-28T15:33:53;7.10;1.00
23267;DHT22;11802;53.160;8.214;2023-02-28T15:36:19;7.10;1.00
23267;DHT22;11802;53.160;8.214;2023-02-28T15:38:51;7.00;1.00
23267;DHT22;11802;53.160;8.214;2023-02-28T15:41:35;6.90;1.00
23267;DHT22;11802;53.160;8.214;2023-02-28T15:46:59;6.80;1.00
23267;DHT22;11802;53.160;8.214;2023-02-28T15:49:25;6.80;1.00
23267;DHT22;11802;53.160;8.214;2023-02-28T15:51:52;6.70;1.00
23267;DHT22;11802;53.160;8.214;2023-02-28T15:54:24;6.70;24.30
23267;DHT22;11802;53.160;8.214;2023-02-28T15:56:57;6.70;37.60
23267;DHT22;11802;53.160;8.214;2023-02-28T15:59:28;6.70;1.00
23267;DHT22;11802;53.160;8.214;2023-02-28T16:02:17;6.70;1.00
23267;DHT22;11802;53.160;8.214;2023-02-28T16:04:56;6.60;1.00
23267;DHT22;11802;53.160;8.214;2023-02-28T16:07:22;6.60;1.00
23267;DHT22;11802;53.160;8.214;2023-02-28T16:09:49;6.60;1.00
23267;DHT22;11802;53.160;8.214;2023-02-28T16:12:15;6.60;1.00
23267;DHT22;11802;53.160;8.214;2023-02-28T16:14:41;6.50;1.00
23267;DHT22;11802;53.160;8.214;2023-02-28T16:17:23;6.50;1.00
23267;DHT22;11802;53.160;8.214;2023-02-28T16:19:49;6.40;1.00
23267;DHT22;11802;53.160;8.214;2023-02-28T16:22:14;6.40;1.00
23267;DHT22;11802;53.160;8.214;2023-02-28T16:24:40;6.30;1.00
23267;DHT22;11802;53.160;8.214;2023-02-28T16:27:20;6.30;1.00
23267;DHT22;11802;53.160;8.214;2023-02-28T16:29:46;6.20;1.00
23267;DHT22;11802;53.160;8.214;2023-02-28T16:32:14;6.20;1.00
23267;DHT22;11802;53.160;8.214;2023-02-28T16:34:41;6.10;1.00
23267;DHT22;11802;53.160;8.214;2023-02-28T16:37:16;6.10;1.00
23267;DHT22;11802;53.160;8.214;2023-02-28T16:39:42;6.00;1.00
23267;DHT22;11802;53.160;8.214;2023-02-28T16:42:15;5.90;1.00
23267;DHT22;11802;53.160;8.214;2023-02-28T16:44:41;5.80;1.00
23267;DHT22;11802;53.160;8.214;2023-02-28T16:47:10;5.80;12.00
23267;DHT22;11802;53.160;8.214;2023-02-28T16:49:36;5.80;1.00
23267;DHT22;11802;53.160;8.214;2023-02-28T16:52:01;5.70;1.00
23267;DHT22;11802;53.160;8.214;2023-02-28T16:54:27;5.60;1.00
23267;DHT22;11802;53.160;8.214;2023-02-28T16:56:52;5.50;1.00
23267;DHT22;11802;53.160;8.214;2023-02-28T16:59:22;5.40;1.00
23267;DHT22;11802;53.160;8.214;2023-02-28T17:01:48;5.40;1.00
23267;DHT22;11802;53.160;8.214;2023-02-28T17:04:14;5.40;1.00
23267;DHT22;11802;53.160;8.214;2023-02-28T17:06:41;5.30;1.00
23267;DHT22;11802;53.160;8.214;2023-02-28T17:09:19;5.20;99.90
23267;DHT22;11802;53.160;8.214;2023-02-28T17:11:45;5.10;99.90
23267;DHT22;11802;53.160;8.214;2023-02-28T17:14:11;5.00;99.90
23267;DHT22;11802;53.160;8.214;2023-02-28T17:16:38;4.90;99.90
23267;DHT22;11802;53.160;8.214;2023-02-28T17:19:12;4.80;99.90
23267;DHT22;11802;53.160;8.214;2023-02-28T17:21:38;4.70;99.90
23267;DHT22;11802;53.160;8.214;2023-02-28T17:24:04;4.50;1.00
23267;DHT22;11802;53.160;8.214;2023-02-28T17:26:30;4.50;1.00
23267;DHT22;11802;53.160;8.214;2023-02-28T17:28:56;4.40;1.00
23267;DHT22;11802;53.160;8.214;2023-02-28T17:31:23;4.30;1.00
23267;DHT22;11802;53.160;8.214;2023-02-28T17:33:49;4.20;28.10
23267;DHT22;11802;53.160;8.214;2023-02-28T17:36:24;4.20;99.90
23267;DHT22;11802;53.160;8.214;2023-02-28T17:38:51;4.10;99.90
23267;DHT22;11802;53.160;8.214;2023-02-28T17:41:17;4.00;99.90
23267;DHT22;11802;53.160;8.214;2023-02-28T17:43:42;4.00;1.00
23267;DHT22;11802;53.160;8.214;2023-02-28T17:46:19;4.10;1.00
23267;DHT22;11802;53.160;8.214;2023-02-28T17:48:50;4.10;1.00
23267;DHT22;11802;53.160;8.214;2023-02-28T17:51:17;4.00;16.80
23267;DHT22;11802;53.160;8.214;2023-02-28T17:53:43;3.90;1.00
23267;DHT22;11802;53.160;8.214;2023-02-28T17:56:12;3.90;1.00
23267;DHT22;11802;53.160;8.214;2023-02-28T17:58:38;3.80;1.00
23267;DHT22;11802;53.160;8.214;2023-02-28T18:01:04;3.70;99.90
23267;DHT22;11802;53.160;8.214;2023-02-28T18:03:30;3.70;1.00
23267;DHT22;11802;53.160;8.214;2023-02-28T18:05:56;3.60;1.00
23267;DHT22;11802;53.160;8.214;2023-02-28T18:08:22;3.50;99.90
23267;DHT22;11802;53.160;8.214;2023-02-28T18:10:48;3.40;1.00
23267;DHT22;11802;53.160;8.214;2023-02-28T18:13:13;3.40;99.90
23267;DHT22;11802;53.160;8.214;2023-02-28T18:15:39;3.30;1.00
23267;DHT22;11802;53.160;8.214;2023-02-28T18:18:04;3.30;1.00
23267;DHT22;11802;53.160;8.214;2023-02-28T18:20:32;3.30;99.90
23267;DHT22;11802;53.160;8.214;2023-02-28T18:22:58;3.20;99.90
23267;DHT22;11802;53.160;8.214;2023-02-28T18:25:23;3.20;99.90
23267;DHT22;11802;53.160;8.214;2023-02-28T18:27:49;3.10;99.90